sensor_id;sensor_type;location;lat;lon;timestamp;P1;durP1;ratioP1;P2;durP2;ratioP2
55364;SDS011;41245;45.384;20.390;2023-05-16T00:01:30;40.58;;;21.23;;
55364;SDS011;41245;45.384;20.390;2023-05-16T00:03:57;44.33;;;20.63;;
55364;SDS011;41245;45.384;20.390;2023-05-16T00:06:22;32.20;;;19.45;;
55364;SDS011;41245;45.384;20.390;2023-05-16T00:08:48;45.25;;;23.55;;
55364;SDS011;41245;45.384;20.390;2023-05-16T00:11:15;38.60;;;20.50;;
55364;SDS011;41245;45.384;20.390;2023-05-16T00:13:41;44.00;;;24.13;;
55364;SDS011;41245;45.384;20.390;2023-05-16T00:16:08;37.40;;;20.00;;
55364;SDS011;41245;45.384;20.390;2023-05-16T00:18:34;40.17;;;23.15;;
55364;SDS011;41245;45.384;20.390;2023-05-16T00:21:03;35.78;;;22.63;;
55364;SDS011;41245;45.384;20.390;2023-05-16T00:23:30;42.97;;;23.90;;
55364;SDS011;41245;45.384;20.390;2023-05-16T00:25:55;39.10;;;22.67;;
55364;SDS011;41245;45.384;20.390;2023-05-16T00:28:21;43.10;;;23.65;;
55364;SDS011;41245;45.384;20.390;2023-05-16T00:30:47;45.58;;;22.92;;
55364;SDS011;41245;45.384;20.390;2023-05-16T00:33:12;43.17;;;22.83;;
55364;SDS011;41245;45.384;20.390;2023-05-16T00:35:38;38.10;;;20.75;;
55364;SDS011;41245;45.384;20.390;2023-05-16T00:38:04;36.58;;;20.48;;
55364;SDS011;41245;45.384;20.390;2023-05-16T00:40:30;34.00;;;21.80;;
55364;SDS011;41245;45.384;20.390;2023-05-16T00:42:56;40.33;;;23.48;;
55364;SDS011;41245;45.384;20.390;2023-05-16T00:45:22;36.88;;;20.20;;
55364;SDS011;41245;45.384;20.390;2023-05-16T00:47:48;46.83;;;21.75;;
55364;SDS011;41245;45.384;20.390;2023-05-16T00:50:15;36.22;;;21.15;;
55364;SDS011;41245;45.384;20.390;2023-05-16T00:52:41;41.42;;;22.95;;
55364;SDS011;41245;45.384;20.390;2023-05-16T00:55:07;37.85;;;22.70;;
55364;SDS011;41245;45.384;20.390;2023-05-16T00:57:35;34.33;;;19.63;;
55364;SDS011;41245;45.384;20.390;2023-05-16T01:00:02;43.05;;;23.00;;
55364;SDS011;41245;45.384;20.390;2023-05-16T01:02:30;41.05;;;22.27;;
55364;SDS011;41245;45.384;20.390;2023-05-16T01:04:56;43.50;;;21.65;;
55364;SDS011;41245;45.384;20.390;2023-05-16T01:07:23;43.47;;;21.13;;
55364;SDS011;41245;45.384;20.390;2023-05-16T01:09:48;36.53;;;19.27;;
55364;SDS011;41245;45.384;20.390;2023-05-16T01:12:23;34.50;;;19.88;;
55364;SDS011;41245;45.384;20.390;2023-05-16T01:15:22;40.97;;;19.50;;
55364;SDS011;41245;45.384;20.390;2023-05-16T01:17:55;33.28;;;19.52;;
55364;SDS011;41245;45.384;20.390;2023-05-16T01:28:08;30.83;;;17.15;;
55364;SDS011;41245;45.384;20.390;2023-05-16T01:30:36;37.72;;;18.30;;
55364;SDS011;41245;45.384;20.390;2023-05-16T01:33:03;34.42;;;16.75;;
55364;SDS011;41245;45.384;20.390;2023-05-16T01:35:29;29.08;;;18.08;;
55364;SDS011;41245;45.384;20.390;2023-05-16T01:43:03;25.13;;;15.98;;
55364;SDS011;41245;45.384;20.390;2023-05-16T01:45:33;35.67;;;15.70;;
55364;SDS011;41245;45.384;20.390;2023-05-16T01:48:04;27.42;;;17.10;;
55364;SDS011;41245;45.384;20.390;2023-05-16T01:50:35;27.30;;;14.10;;
55364;SDS011;41245;45.384;20.390;2023-05-16T01:53:18;27.20;;;16.13;;
55364;SDS011;41245;45.384;20.390;2023-05-16T01:56:00;32.53;;;15.13;;
55364;SDS011;41245;45.384;20.390;2023-05-16T01:58:27;28.90;;;15.98;;
55364;SDS011;41245;45.384;20.390;2023-05-16T02:00:59;24.45;;;14.77;;
55364;SDS011;41245;45.384;20.390;2023-05-16T02:03:27;30.17;;;15.27;;
55364;SDS011;41245;45.384;20.390;2023-05-16T02:05:54;26.45;;;16.30;;
55364;SDS011;41245;45.384;20.390;2023-05-16T02:08:20;28.90;;;15.68;;
55364;SDS011;41245;45.384;20.390;2023-05-16T02:10:46;27.00;;;15.30;;
55364;SDS011;41245;45.384;20.390;2023-05-16T02:13:11;27.58;;;14.52;;
55364;SDS011;41245;45.384;20.390;2023-05-16T02:15:37;32.95;;;14.60;;
55364;SDS011;41245;45.384;20.390;2023-05-16T02:18:03;33.35;;;16.60;;
55364;SDS011;41245;45.384;20.390;2023-05-16T02:20:29;26.40;;;15.60;;
55364;SDS011;41245;45.384;20.390;2023-05-16T02:22:55;30.10;;;16.17;;
55364;SDS011;41245;45.384;20.390;2023-05-16T02:25:21;24.05;;;15.07;;
55364;SDS011;41245;45.384;20.390;2023-05-16T02:27:46;26.77;;;15.50;;
55364;SDS011;41245;45.384;20.390;2023-05-16T02:30:13;38.97;;;16.85;;
55364;SDS011;41245;45.384;20.390;2023-05-16T02:32:39;29.98;;;15.25;;
55364;SDS011;41245;45.384;20.390;2023-05-16T02:35:05;31.45;;;14.85;;
55364;SDS011;41245;45.384;20.390;2023-05-16T02:37:32;25.25;;;14.55;;
55364;SDS011;41245;45.384;20.390;2023-05-16T02:39:57;29.58;;;15.20;;
55364;SDS011;41245;45.384;20.390;2023-05-16T02:42:24;26.75;;;16.58;;
55364;SDS011;41245;45.384;20.390;2023-05-16T02:44:51;35.67;;;16.88;;
55364;SDS011;41245;45.384;20.390;2023-05-16T02:47:17;34.85;;;15.30;;
55364;SDS011;41245;45.384;20.390;2023-05-16T02:49:42;38.50;;;16.80;;
55364;SDS011;41245;45.384;20.390;2023-05-16T02:52:08;32.28;;;15.70;;
55364;SDS011;41245;45.384;20.390;2023-05-16T02:54:34;29.95;;;16.98;;
55364;SDS011;41245;45.384;20.390;2023-05-16T02:57:00;29.00;;;15.60;;
55364;SDS011;41245;45.384;20.390;2023-05-16T02:59:25;25.40;;;15.52;;
55364;SDS011;41245;45.384;20.390;2023-05-16T03:01:51;32.60;;;17.85;;
55364;SDS011;41245;45.384;20.390;2023-05-16T03:04:17;32.45;;;17.77;;
55364;SDS011;41245;45.384;20.390;2023-05-16T03:06:43;34.65;;;17.35;;
55364;SDS011;41245;45.384;20.390;2023-05-16T03:09:09;30.25;;;16.88;;
55364;SDS011;41245;45.384;20.390;2023-05-16T03:11:34;37.35;;;15.13;;
55364;SDS011;41245;45.384;20.390;2023-05-16T03:14:00;30.30;;;16.70;;
55364;SDS011;41245;45.384;20.390;2023-05-16T03:16:26;28.83;;;16.20;;
55364;SDS011;41245;45.384;20.390;2023-05-16T03:18:52;38.75;;;17.92;;
55364;SDS011;41245;45.384;20.390;2023-05-16T03:21:18;32.13;;;15.35;;
55364;SDS011;41245;45.384;20.390;2023-05-16T03:23:44;33.97;;;15.98;;
55364;SDS011;41245;45.384;20.390;2023-05-16T03:26:09;28.63;;;15.25;;
55364;SDS011;41245;45.384;20.390;2023-05-16T03:28:35;28.63;;;14.68;;
55364;SDS011;41245;45.384;20.390;2023-05-16T03:31:01;29.85;;;15.43;;
55364;SDS011;41245;45.384;20.390;2023-05-16T03:33:27;31.85;;;15.05;;
55364;SDS011;41245;45.384;20.390;2023-05-16T03:35:52;38.38;;;15.23;;
55364;SDS011;41245;45.384;20.390;2023-05-16T03:38:18;32.28;;;15.23;;
55364;SDS011;41245;45.384;20.390;2023-05-16T03:40:44;28.92;;;14.85;;
55364;SDS011;41245;45.384;20.390;2023-05-16T03:43:09;35.28;;;15.38;;
55364;SDS011;41245;45.384;20.390;2023-05-16T03:45:35;24.23;;;13.45;;
55364;SDS011;41245;45.384;20.390;2023-05-16T03:48:01;28.98;;;14.15;;
55364;SDS011;41245;45.384;20.390;2023-05-16T03:50:27;22.95;;;12.70;;
55364;SDS011;41245;45.384;20.390;2023-05-16T03:52:52;24.17;;;15.27;;
55364;SDS011;41245;45.384;20.390;2023-05-16T03:55:18;24.67;;;16.13;;
55364;SDS011;41245;45.384;20.390;2023-05-16T03:57:44;31.17;;;13.40;;
55364;SDS011;41245;45.384;20.390;2023-05-16T04:00:11;25.60;;;13.95;;
55364;SDS011;41245;45.384;20.390;2023-05-16T04:02:38;24.02;;;13.15;;
55364;SDS011;41245;45.384;20.390;2023-05-16T04:05:05;27.80;;;14.00;;
55364;SDS011;41245;45.384;20.390;2023-05-16T04:07:32;24.42;;;13.55;;
55364;SDS011;41245;45.384;20.390;2023-05-16T04:09:58;29.02;;;15.55;;
55364;SDS011;41245;45.384;20.390;2023-05-16T04:12:24;22.80;;;13.27;;
55364;SDS011;41245;45.384;20.390;2023-05-16T04:14:49;26.73;;;14.65;;
55364;SDS011;41245;45.384;20.390;2023-05-16T04:17:15;26.30;;;15.65;;
55364;SDS011;41245;45.384;20.390;2023-05-16T04:19:41;28.17;;;14.70;;
55364;SDS011;41245;45.384;20.390;2023-05-16T04:22:06;28.05;;;13.27;;
55364;SDS011;41245;45.384;20.390;2023-05-16T04:24:32;24.50;;;13.70;;
55364;SDS011;41245;45.384;20.390;2023-05-16T04:26:58;29.00;;;13.52;;
55364;SDS011;41245;45.384;20.390;2023-05-16T04:29:24;32.30;;;14.65;;
55364;SDS011;41245;45.384;20.390;2023-05-16T04:31:49;25.23;;;12.00;;
55364;SDS011;41245;45.384;20.390;2023-05-16T04:34:15;28.42;;;14.10;;
55364;SDS011;41245;45.384;20.390;2023-05-16T04:36:41;21.20;;;11.35;;
55364;SDS011;41245;45.384;20.390;2023-05-16T04:39:07;19.17;;;11.65;;
55364;SDS011;41245;45.384;20.390;2023-05-16T04:41:33;28.15;;;11.25;;
55364;SDS011;41245;45.384;20.390;2023-05-16T04:44:00;21.77;;;12.05;;
55364;SDS011;41245;45.384;20.390;2023-05-16T04:46:30;21.38;;;11.82;;
55364;SDS011;41245;45.384;20.390;2023-05-16T04:48:56;24.52;;;11.50;;
55364;SDS011;41245;45.384;20.390;2023-05-16T04:51:21;25.60;;;12.32;;
55364;SDS011;41245;45.384;20.390;2023-05-16T04:53:47;19.95;;;10.48;;
55364;SDS011;41245;45.384;20.390;2023-05-16T04:56:13;19.25;;;10.07;;
55364;SDS011;41245;45.384;20.390;2023-05-16T04:58:39;21.35;;;11.60;;
55364;SDS011;41245;45.384;20.390;2023-05-16T05:01:04;23.05;;;12.43;;
55364;SDS011;41245;45.384;20.390;2023-05-16T05:03:30;24.83;;;12.70;;
55364;SDS011;41245;45.384;20.390;2023-05-16T05:05:56;24.25;;;13.52;;
55364;SDS011;41245;45.384;20.390;2023-05-16T05:08:22;27.02;;;13.30;;
55364;SDS011;41245;45.384;20.390;2023-05-16T05:10:47;29.55;;;12.90;;
55364;SDS011;41245;45.384;20.390;2023-05-16T05:13:13;25.02;;;12.77;;
55364;SDS011;41245;45.384;20.390;2023-05-16T05:15:39;23.80;;;13.43;;
55364;SDS011;41245;45.384;20.390;2023-05-16T05:18:04;22.55;;;12.05;;
55364;SDS011;41245;45.384;20.390;2023-05-16T05:20:30;27.30;;;12.32;;
55364;SDS011;41245;45.384;20.390;2023-05-16T05:22:57;21.67;;;11.70;;
55364;SDS011;41245;45.384;20.390;2023-05-16T05:25:22;23.92;;;12.63;;
55364;SDS011;41245;45.384;20.390;2023-05-16T05:27:48;24.65;;;11.15;;
55364;SDS011;41245;45.384;20.390;2023-05-16T05:30:14;21.95;;;12.57;;
55364;SDS011;41245;45.384;20.390;2023-05-16T05:32:40;24.98;;;13.20;;
55364;SDS011;41245;45.384;20.390;2023-05-16T05:35:06;24.58;;;12.98;;
55364;SDS011;41245;45.384;20.390;2023-05-16T05:37:31;27.02;;;13.70;;
55364;SDS011;41245;45.384;20.390;2023-05-16T05:39:57;20.80;;;12.55;;
55364;SDS011;41245;45.384;20.390;2023-05-16T05:42:23;24.50;;;12.13;;
55364;SDS011;41245;45.384;20.390;2023-05-16T05:44:49;20.52;;;13.25;;
55364;SDS011;41245;45.384;20.390;2023-05-16T05:47:15;18.00;;;12.15;;
55364;SDS011;41245;45.384;20.390;2023-05-16T05:49:41;17.63;;;12.38;;
55364;SDS011;41245;45.384;20.390;2023-05-16T05:52:07;19.13;;;9.60;;
55364;SDS011;41245;45.384;20.390;2023-05-16T05:54:33;18.60;;;9.73;;
55364;SDS011;41245;45.384;20.390;2023-05-16T05:56:59;17.83;;;9.23;;
55364;SDS011;41245;45.384;20.390;2023-05-16T05:59:25;14.35;;;8.15;;
55364;SDS011;41245;45.384;20.390;2023-05-16T06:01:51;16.77;;;9.50;;
55364;SDS011;41245;45.384;20.390;2023-05-16T06:04:20;15.50;;;10.20;;
55364;SDS011;41245;45.384;20.390;2023-05-16T06:06:46;18.83;;;9.50;;
55364;SDS011;41245;45.384;20.390;2023-05-16T06:09:12;18.30;;;10.52;;
55364;SDS011;41245;45.384;20.390;2023-05-16T06:11:39;17.67;;;9.25;;
55364;SDS011;41245;45.384;20.390;2023-05-16T06:14:05;15.68;;;8.57;;
55364;SDS011;41245;45.384;20.390;2023-05-16T06:16:31;21.27;;;9.75;;
55364;SDS011;41245;45.384;20.390;2023-05-16T06:18:57;13.70;;;8.10;;
55364;SDS011;41245;45.384;20.390;2023-05-16T06:21:23;26.77;;;9.20;;
55364;SDS011;41245;45.384;20.390;2023-05-16T06:23:49;15.00;;;8.10;;
55364;SDS011;41245;45.384;20.390;2023-05-16T06:26:15;21.42;;;9.25;;
55364;SDS011;41245;45.384;20.390;2023-05-16T06:28:40;14.80;;;8.02;;
55364;SDS011;41245;45.384;20.390;2023-05-16T06:31:06;15.88;;;8.38;;
55364;SDS011;41245;45.384;20.390;2023-05-16T06:33:32;15.70;;;9.00;;
55364;SDS011;41245;45.384;20.390;2023-05-16T06:35:58;15.05;;;8.88;;
55364;SDS011;41245;45.384;20.390;2023-05-16T06:38:24;17.65;;;7.97;;
55364;SDS011;41245;45.384;20.390;2023-05-16T06:40:49;25.67;;;8.40;;
55364;SDS011;41245;45.384;20.390;2023-05-16T06:43:16;16.65;;;7.28;;
55364;SDS011;41245;45.384;20.390;2023-05-16T06:45:43;17.77;;;8.25;;
55364;SDS011;41245;45.384;20.390;2023-05-16T06:48:13;13.15;;;6.80;;
55364;SDS011;41245;45.384;20.390;2023-05-16T06:50:39;14.25;;;7.00;;
55364;SDS011;41245;45.384;20.390;2023-05-16T06:53:05;15.88;;;7.53;;
55364;SDS011;41245;45.384;20.390;2023-05-16T06:55:31;12.98;;;6.82;;
55364;SDS011;41245;45.384;20.390;2023-05-16T06:57:57;24.80;;;7.20;;
55364;SDS011;41245;45.384;20.390;2023-05-16T07:00:23;16.63;;;7.13;;
55364;SDS011;41245;45.384;20.390;2023-05-16T07:02:49;13.05;;;6.80;;
55364;SDS011;41245;45.384;20.390;2023-05-16T07:05:15;9.73;;;6.40;;
55364;SDS011;41245;45.384;20.390;2023-05-16T07:07:41;12.35;;;7.00;;
55364;SDS011;41245;45.384;20.390;2023-05-16T07:10:07;13.20;;;6.40;;
55364;SDS011;41245;45.384;20.390;2023-05-16T07:12:34;12.15;;;7.50;;
55364;SDS011;41245;45.384;20.390;2023-05-16T07:15:01;13.27;;;7.28;;
55364;SDS011;41245;45.384;20.390;2023-05-16T07:17:27;12.32;;;7.18;;
55364;SDS011;41245;45.384;20.390;2023-05-16T07:19:53;14.52;;;6.85;;
55364;SDS011;41245;45.384;20.390;2023-05-16T07:22:18;16.85;;;6.78;;
55364;SDS011;41245;45.384;20.390;2023-05-16T07:24:44;15.35;;;7.13;;
55364;SDS011;41245;45.384;20.390;2023-05-16T07:27:10;13.82;;;6.70;;
55364;SDS011;41245;45.384;20.390;2023-05-16T07:29:36;13.18;;;7.07;;
55364;SDS011;41245;45.384;20.390;2023-05-16T07:32:05;11.48;;;5.93;;
55364;SDS011;41245;45.384;20.390;2023-05-16T07:34:31;11.43;;;6.60;;
55364;SDS011;41245;45.384;20.390;2023-05-16T07:36:56;19.63;;;7.75;;
55364;SDS011;41245;45.384;20.390;2023-05-16T07:39:22;12.50;;;6.47;;
55364;SDS011;41245;45.384;20.390;2023-05-16T07:41:48;12.15;;;6.32;;
55364;SDS011;41245;45.384;20.390;2023-05-16T07:44:13;10.20;;;6.20;;
55364;SDS011;41245;45.384;20.390;2023-05-16T07:46:39;10.55;;;6.18;;
55364;SDS011;41245;45.384;20.390;2023-05-16T07:49:05;18.33;;;6.07;;
55364;SDS011;41245;45.384;20.390;2023-05-16T07:51:30;16.20;;;5.97;;
55364;SDS011;41245;45.384;20.390;2023-05-16T07:53:56;19.25;;;7.47;;
55364;SDS011;41245;45.384;20.390;2023-05-16T07:56:22;15.57;;;6.50;;
55364;SDS011;41245;45.384;20.390;2023-05-16T07:58:48;12.52;;;6.30;;
55364;SDS011;41245;45.384;20.390;2023-05-16T08:01:14;21.58;;;7.97;;
55364;SDS011;41245;45.384;20.390;2023-05-16T08:03:40;14.80;;;7.20;;
55364;SDS011;41245;45.384;20.390;2023-05-16T08:06:06;21.98;;;7.97;;
55364;SDS011;41245;45.384;20.390;2023-05-16T08:08:32;14.02;;;8.23;;
55364;SDS011;41245;45.384;20.390;2023-05-16T08:10:57;12.73;;;7.97;;
55364;SDS011;41245;45.384;20.390;2023-05-16T08:13:23;15.40;;;8.40;;
55364;SDS011;41245;45.384;20.390;2023-05-16T08:15:49;20.90;;;9.20;;
55364;SDS011;41245;45.384;20.390;2023-05-16T08:18:15;16.65;;;8.68;;
55364;SDS011;41245;45.384;20.390;2023-05-16T08:20:40;13.27;;;7.78;;
55364;SDS011;41245;45.384;20.390;2023-05-16T08:23:07;12.63;;;8.88;;
55364;SDS011;41245;45.384;20.390;2023-05-16T08:25:33;21.55;;;9.18;;
55364;SDS011;41245;45.384;20.390;2023-05-16T08:28:00;19.45;;;11.27;;
55364;SDS011;41245;45.384;20.390;2023-05-16T08:30:26;28.55;;;10.85;;
55364;SDS011;41245;45.384;20.390;2023-05-16T08:32:53;22.30;;;11.88;;
55364;SDS011;41245;45.384;20.390;2023-05-16T08:35:18;20.73;;;12.15;;
55364;SDS011;41245;45.384;20.390;2023-05-16T08:37:44;19.02;;;9.82;;
55364;SDS011;41245;45.384;20.390;2023-05-16T08:40:10;14.10;;;9.13;;
55364;SDS011;41245;45.384;20.390;2023-05-16T08:42:36;12.82;;;9.35;;
55364;SDS011;41245;45.384;20.390;2023-05-16T08:45:03;17.45;;;10.48;;
55364;SDS011;41245;45.384;20.390;2023-05-16T08:47:30;12.95;;;7.63;;
55364;SDS011;41245;45.384;20.390;2023-05-16T08:49:57;14.32;;;7.82;;
55364;SDS011;41245;45.384;20.390;2023-05-16T08:52:25;12.02;;;7.18;;
55364;SDS011;41245;45.384;20.390;2023-05-16T08:54:58;12.52;;;7.85;;
55364;SDS011;41245;45.384;20.390;2023-05-16T08:57:29;13.43;;;7.20;;
55364;SDS011;41245;45.384;20.390;2023-05-16T08:59:58;11.93;;;6.82;;
55364;SDS011;41245;45.384;20.390;2023-05-16T09:02:24;19.25;;;6.13;;
55364;SDS011;41245;45.384;20.390;2023-05-16T09:04:50;10.68;;;6.53;;
55364;SDS011;41245;45.384;20.390;2023-05-16T09:07:17;10.45;;;6.30;;
55364;SDS011;41245;45.384;20.390;2023-05-16T09:09:42;12.43;;;6.10;;
55364;SDS011;41245;45.384;20.390;2023-05-16T09:12:08;11.35;;;5.97;;
55364;SDS011;41245;45.384;20.390;2023-05-16T09:14:34;13.60;;;6.05;;
55364;SDS011;41245;45.384;20.390;2023-05-16T09:17:06;14.10;;;6.72;;
55364;SDS011;41245;45.384;20.390;2023-05-16T09:19:39;12.00;;;6.45;;
55364;SDS011;41245;45.384;20.390;2023-05-16T09:22:12;8.27;;;5.18;;
55364;SDS011;41245;45.384;20.390;2023-05-16T09:24:39;9.23;;;5.03;;
55364;SDS011;41245;45.384;20.390;2023-05-16T09:27:13;15.30;;;5.40;;
55364;SDS011;41245;45.384;20.390;2023-05-16T09:29:42;7.72;;;5.53;;
55364;SDS011;41245;45.384;20.390;2023-05-16T09:32:14;12.00;;;5.55;;
55364;SDS011;41245;45.384;20.390;2023-05-16T09:34:45;6.78;;;4.82;;
55364;SDS011;41245;45.384;20.390;2023-05-16T09:37:16;11.68;;;5.82;;
55364;SDS011;41245;45.384;20.390;2023-05-16T09:39:46;14.98;;;6.82;;
55364;SDS011;41245;45.384;20.390;2023-05-16T09:42:13;11.00;;;5.82;;
55364;SDS011;41245;45.384;20.390;2023-05-16T09:44:40;8.77;;;5.53;;
55364;SDS011;41245;45.384;20.390;2023-05-16T09:47:12;17.50;;;6.20;;
55364;SDS011;41245;45.384;20.390;2023-05-16T09:52:06;17.40;;;9.43;;
55364;SDS011;41245;45.384;20.390;2023-05-16T09:54:32;10.95;;;5.68;;
55364;SDS011;41245;45.384;20.390;2023-05-16T09:56:58;12.50;;;5.40;;
55364;SDS011;41245;45.384;20.390;2023-05-16T09:59:28;11.90;;;5.20;;
55364;SDS011;41245;45.384;20.390;2023-05-16T10:01:54;9.67;;;5.20;;
55364;SDS011;41245;45.384;20.390;2023-05-16T10:04:23;10.93;;;7.57;;
55364;SDS011;41245;45.384;20.390;2023-05-16T10:06:49;11.13;;;7.22;;
55364;SDS011;41245;45.384;20.390;2023-05-16T10:09:18;10.87;;;6.10;;
55364;SDS011;41245;45.384;20.390;2023-05-16T10:11:46;9.35;;;5.38;;
55364;SDS011;41245;45.384;20.390;2023-05-16T10:14:15;9.73;;;5.60;;
55364;SDS011;41245;45.384;20.390;2023-05-16T10:16:42;6.93;;;5.47;;
55364;SDS011;41245;45.384;20.390;2023-05-16T10:19:10;11.02;;;5.60;;
55364;SDS011;41245;45.384;20.390;2023-05-16T10:21:37;11.57;;;6.32;;
55364;SDS011;41245;45.384;20.390;2023-05-16T10:24:05;13.45;;;6.75;;
55364;SDS011;41245;45.384;20.390;2023-05-16T10:26:35;8.93;;;5.13;;
55364;SDS011;41245;45.384;20.390;2023-05-16T10:29:01;13.68;;;5.65;;
55364;SDS011;41245;45.384;20.390;2023-05-16T10:31:28;15.27;;;6.72;;
55364;SDS011;41245;45.384;20.390;2023-05-16T10:33:57;13.70;;;6.93;;
55364;SDS011;41245;45.384;20.390;2023-05-16T10:36:23;13.73;;;6.57;;
55364;SDS011;41245;45.384;20.390;2023-05-16T10:38:49;16.52;;;6.15;;
55364;SDS011;41245;45.384;20.390;2023-05-16T10:41:15;22.58;;;7.38;;
55364;SDS011;41245;45.384;20.390;2023-05-16T10:43:43;11.77;;;5.65;;
55364;SDS011;41245;45.384;20.390;2023-05-16T10:46:20;13.10;;;5.65;;
55364;SDS011;41245;45.384;20.390;2023-05-16T10:48:47;16.77;;;8.63;;
55364;SDS011;41245;45.384;20.390;2023-05-16T10:53:51;16.92;;;6.43;;
55364;SDS011;41245;45.384;20.390;2023-05-16T10:56:21;36.13;;;17.95;;
55364;SDS011;41245;45.384;20.390;2023-05-16T10:58:48;28.33;;;10.02;;
55364;SDS011;41245;45.384;20.390;2023-05-16T11:01:25;16.65;;;7.13;;
55364;SDS011;41245;45.384;20.390;2023-05-16T11:06:32;17.03;;;6.73;;
55364;SDS011;41245;45.384;20.390;2023-05-16T11:09:05;18.45;;;7.35;;
55364;SDS011;41245;45.384;20.390;2023-05-16T11:16:58;23.87;;;7.57;;
55364;SDS011;41245;45.384;20.390;2023-05-16T11:19:44;23.27;;;7.07;;
55364;SDS011;41245;45.384;20.390;2023-05-16T11:27:23;12.95;;;7.20;;
55364;SDS011;41245;45.384;20.390;2023-05-16T11:30:03;18.77;;;6.93;;
55364;SDS011;41245;45.384;20.390;2023-05-16T11:32:37;18.83;;;7.18;;
55364;SDS011;41245;45.384;20.390;2023-05-16T11:35:04;19.38;;;7.32;;
55364;SDS011;41245;45.384;20.390;2023-05-16T11:37:33;16.75;;;8.07;;
55364;SDS011;41245;45.384;20.390;2023-05-16T11:40:01;14.65;;;7.47;;
55364;SDS011;41245;45.384;20.390;2023-05-16T11:42:43;13.70;;;6.45;;
55364;SDS011;41245;45.384;20.390;2023-05-16T11:45:15;13.45;;;7.43;;
55364;SDS011;41245;45.384;20.390;2023-05-16T11:47:49;21.38;;;7.82;;
55364;SDS011;41245;45.384;20.390;2023-05-16T11:52:44;21.52;;;7.72;;
55364;SDS011;41245;45.384;20.390;2023-05-16T11:55:12;13.52;;;6.72;;
55364;SDS011;41245;45.384;20.390;2023-05-16T11:57:40;23.02;;;7.15;;
55364;SDS011;41245;45.384;20.390;2023-05-16T12:00:13;15.48;;;6.97;;
55364;SDS011;41245;45.384;20.390;2023-05-16T12:02:43;18.90;;;6.80;;
55364;SDS011;41245;45.384;20.390;2023-05-16T12:05:11;17.90;;;6.63;;
55364;SDS011;41245;45.384;20.390;2023-05-16T12:07:37;20.50;;;7.15;;
55364;SDS011;41245;45.384;20.390;2023-05-16T12:10:04;11.98;;;6.15;;
55364;SDS011;41245;45.384;20.390;2023-05-16T12:12:34;12.05;;;7.13;;
55364;SDS011;41245;45.384;20.390;2023-05-16T12:15:02;16.17;;;6.57;;
55364;SDS011;41245;45.384;20.390;2023-05-16T12:17:28;20.10;;;7.97;;
55364;SDS011;41245;45.384;20.390;2023-05-16T12:19:54;26.15;;;6.93;;
55364;SDS011;41245;45.384;20.390;2023-05-16T12:22:21;14.55;;;7.18;;
55364;SDS011;41245;45.384;20.390;2023-05-16T12:24:47;17.08;;;6.38;;
55364;SDS011;41245;45.384;20.390;2023-05-16T12:27:19;14.27;;;6.78;;
55364;SDS011;41245;45.384;20.390;2023-05-16T12:29:49;14.98;;;6.35;;
55364;SDS011;41245;45.384;20.390;2023-05-16T12:32:18;15.23;;;6.07;;
55364;SDS011;41245;45.384;20.390;2023-05-16T12:34:48;20.30;;;5.57;;
55364;SDS011;41245;45.384;20.390;2023-05-16T12:37:19;11.23;;;5.22;;
55364;SDS011;41245;45.384;20.390;2023-05-16T12:39:45;14.60;;;4.78;;
55364;SDS011;41245;45.384;20.390;2023-05-16T12:42:12;19.23;;;5.60;;
55364;SDS011;41245;45.384;20.390;2023-05-16T12:44:39;16.92;;;6.50;;
55364;SDS011;41245;45.384;20.390;2023-05-16T12:47:12;17.08;;;6.40;;
55364;SDS011;41245;45.384;20.390;2023-05-16T12:49:44;12.82;;;5.85;;
55364;SDS011;41245;45.384;20.390;2023-05-16T12:52:11;14.02;;;6.18;;
55364;SDS011;41245;45.384;20.390;2023-05-16T12:54:43;17.05;;;6.47;;
55364;SDS011;41245;45.384;20.390;2023-05-16T12:57:09;14.82;;;6.13;;
55364;SDS011;41245;45.384;20.390;2023-05-16T12:59:35;17.52;;;6.43;;
55364;SDS011;41245;45.384;20.390;2023-05-16T13:02:01;19.42;;;6.30;;
55364;SDS011;41245;45.384;20.390;2023-05-16T13:04:27;17.83;;;6.32;;
55364;SDS011;41245;45.384;20.390;2023-05-16T13:06:54;19.52;;;6.45;;
55364;SDS011;41245;45.384;20.390;2023-05-16T13:09:19;17.65;;;5.88;;
55364;SDS011;41245;45.384;20.390;2023-05-16T13:11:45;19.67;;;6.10;;
55364;SDS011;41245;45.384;20.390;2023-05-16T13:14:12;15.40;;;6.43;;
55364;SDS011;41245;45.384;20.390;2023-05-16T13:16:37;11.02;;;5.40;;
55364;SDS011;41245;45.384;20.390;2023-05-16T13:19:03;15.13;;;5.32;;
55364;SDS011;41245;45.384;20.390;2023-05-16T13:21:29;11.50;;;4.63;;
55364;SDS011;41245;45.384;20.390;2023-05-16T13:23:56;9.48;;;5.45;;
55364;SDS011;41245;45.384;20.390;2023-05-16T13:26:23;18.20;;;5.65;;
55364;SDS011;41245;45.384;20.390;2023-05-16T13:28:48;21.30;;;5.93;;
55364;SDS011;41245;45.384;20.390;2023-05-16T13:31:17;13.60;;;5.88;;
55364;SDS011;41245;45.384;20.390;2023-05-16T13:33:43;10.63;;;5.05;;
55364;SDS011;41245;45.384;20.390;2023-05-16T13:36:09;14.20;;;5.47;;
55364;SDS011;41245;45.384;20.390;2023-05-16T13:38:35;11.15;;;5.72;;
55364;SDS011;41245;45.384;20.390;2023-05-16T13:41:01;12.30;;;6.00;;
55364;SDS011;41245;45.384;20.390;2023-05-16T13:43:26;15.23;;;6.00;;
55364;SDS011;41245;45.384;20.390;2023-05-16T13:45:52;16.67;;;5.10;;
55364;SDS011;41245;45.384;20.390;2023-05-16T13:48:18;25.30;;;5.75;;
55364;SDS011;41245;45.384;20.390;2023-05-16T13:50:44;12.00;;;6.15;;
55364;SDS011;41245;45.384;20.390;2023-05-16T13:53:10;13.57;;;5.93;;
55364;SDS011;41245;45.384;20.390;2023-05-16T13:55:36;20.80;;;7.30;;
55364;SDS011;41245;45.384;20.390;2023-05-16T13:58:02;12.93;;;5.40;;
55364;SDS011;41245;45.384;20.390;2023-05-16T14:00:28;25.58;;;6.40;;
55364;SDS011;41245;45.384;20.390;2023-05-16T14:02:54;13.85;;;6.53;;
55364;SDS011;41245;45.384;20.390;2023-05-16T14:05:20;15.95;;;7.38;;
55364;SDS011;41245;45.384;20.390;2023-05-16T14:07:46;16.38;;;6.47;;
55364;SDS011;41245;45.384;20.390;2023-05-16T14:10:12;16.30;;;6.63;;
55364;SDS011;41245;45.384;20.390;2023-05-16T14:12:38;15.85;;;5.05;;
55364;SDS011;41245;45.384;20.390;2023-05-16T14:15:04;13.75;;;5.00;;
55364;SDS011;41245;45.384;20.390;2023-05-16T14:17:31;19.00;;;5.97;;
55364;SDS011;41245;45.384;20.390;2023-05-16T14:19:56;13.18;;;5.57;;
55364;SDS011;41245;45.384;20.390;2023-05-16T14:22:22;15.77;;;6.88;;
55364;SDS011;41245;45.384;20.390;2023-05-16T14:24:48;10.90;;;5.47;;
55364;SDS011;41245;45.384;20.390;2023-05-16T14:27:14;15.68;;;5.50;;
55364;SDS011;41245;45.384;20.390;2023-05-16T14:29:40;8.40;;;5.20;;
55364;SDS011;41245;45.384;20.390;2023-05-16T14:32:07;10.60;;;5.55;;
55364;SDS011;41245;45.384;20.390;2023-05-16T14:34:35;18.52;;;6.10;;
55364;SDS011;41245;45.384;20.390;2023-05-16T14:37:00;14.55;;;5.32;;
55364;SDS011;41245;45.384;20.390;2023-05-16T14:39:26;16.30;;;5.43;;
55364;SDS011;41245;45.384;20.390;2023-05-16T14:41:52;18.35;;;5.95;;
55364;SDS011;41245;45.384;20.390;2023-05-16T14:44:17;25.40;;;6.18;;
55364;SDS011;41245;45.384;20.390;2023-05-16T14:46:45;25.80;;;6.18;;
55364;SDS011;41245;45.384;20.390;2023-05-16T14:49:11;10.98;;;4.57;;